sensor_id;sensor_type;location;lat;lon;timestamp;pressure;altitude;pressure_sealevel;temperature;humidity
70009;BME280;59542;37.950;-122.338;2023-10-19T00:00:20;100985.22;;;30.10;29.90
70009;BME280;59542;37.950;-122.338;2023-10-19T00:02:49;100984.00;;;29.90;29.52
70009;BME280;59542;37.950;-122.338;2023-10-19T00:05:18;100982.06;;;29.90;29.85
70009;BME280;59542;37.950;-122.338;2023-10-19T00:07:46;100977.50;;;29.94;30.20
70009;BME280;59542;37.950;-122.338;2023-10-19T00:10:12;100977.34;;;29.91;29.94
70009;BME280;59542;37.950;-122.338;2023-10-19T00:12:42;100975.28;;;29.88;30.32
70009;BME280;59542;37.950;-122.338;2023-10-19T00:15:10;100980.44;;;29.89;30.28
70009;BME280;59542;37.950;-122.338;2023-10-19T00:17:38;100975.84;;;29.73;31.00
70009;BME280;59542;37.950;-122.338;2023-10-19T00:20:06;100976.19;;;29.62;30.87
70009;BME280;59542;37.950;-122.338;2023-10-19T00:22:50;100978.31;;;29.65;31.58
70009;BME280;59542;37.950;-122.338;2023-10-19T00:25:18;100975.34;;;29.70;30.85
70009;BME280;59542;37.950;-122.338;2023-10-19T00:27:44;100978.31;;;29.48;31.37
70009;BME280;59542;37.950;-122.338;2023-10-19T00:30:11;100980.63;;;29.46;31.72
70009;BME280;59542;37.950;-122.338;2023-10-19T00:32:37;100982.28;;;29.30;32.39
70009;BME280;59542;37.950;-122.338;2023-10-19T00:35:05;100984.44;;;29.07;32.69
70009;BME280;59542;37.950;-122.338;2023-10-19T00:37:52;100984.03;;;29.43;32.04
70009;BME280;59542;37.950;-122.338;2023-10-19T00:40:20;100986.88;;;29.08;32.33
70009;BME280;59542;37.950;-122.338;2023-10-19T00:43:03;100985.25;;;28.90;32.66
70009;BME280;59542;37.950;-122.338;2023-10-19T00:45:35;100980.72;;;28.85;32.48
70009;BME280;59542;37.950;-122.338;2023-10-19T00:48:08;100976.66;;;29.17;32.56
70009;BME280;59542;37.950;-122.338;2023-10-19T00:50:37;100977.19;;;28.93;32.32
70009;BME280;59542;37.950;-122.338;2023-10-19T00:53:04;100975.06;;;28.82;32.42
70009;BME280;59542;37.950;-122.338;2023-10-19T00:55:34;100974.72;;;28.92;32.92
70009;BME280;59542;37.950;-122.338;2023-10-19T00:58:02;100972.63;;;28.89;33.30
70009;BME280;59542;37.950;-122.338;2023-10-19T01:00:36;100971.34;;;28.78;34.21
70009;BME280;59542;37.950;-122.338;2023-10-19T01:03:11;100976.22;;;28.72;33.02
70009;BME280;59542;37.950;-122.338;2023-10-19T01:05:43;100976.34;;;28.76;33.53
70009;BME280;59542;37.950;-122.338;2023-10-19T01:08:14;100981.22;;;28.53;33.14
70009;BME280;59542;37.950;-122.338;2023-10-19T01:10:51;100981.72;;;28.63;33.32
70009;BME280;59542;37.950;-122.338;2023-10-19T01:13:18;100978.16;;;28.54;33.46
70009;BME280;59542;37.950;-122.338;2023-10-19T01:15:53;100975.72;;;28.61;33.71
70009;BME280;59542;37.950;-122.338;2023-10-19T01:18:20;100985.94;;;28.44;33.85
70009;BME280;59542;37.950;-122.338;2023-10-19T01:20:47;100975.19;;;28.25;34.73
70009;BME280;59542;37.950;-122.338;2023-10-19T01:23:16;100983.91;;;28.18;35.42
70009;BME280;59542;37.950;-122.338;2023-10-19T01:26:01;100976.91;;;28.03;36.57
70009;BME280;59542;37.950;-122.338;2023-10-19T01:28:37;100977.84;;;27.90;36.12
70009;BME280;59542;37.950;-122.338;2023-10-19T01:31:21;100976.06;;;27.77;36.82
70009;BME280;59542;37.950;-122.338;2023-10-19T01:33:54;100973.19;;;27.59;37.46
70009;BME280;59542;37.950;-122.338;2023-10-19T01:36:25;100971.53;;;27.50;38.17
70009;BME280;59542;37.950;-122.338;2023-10-19T01:38:55;100976.81;;;27.38;38.50
70009;BME280;59542;37.950;-122.338;2023-10-19T01:41:27;100971.59;;;27.27;39.32
70009;BME280;59542;37.950;-122.338;2023-10-19T01:43:56;100980.09;;;27.17;39.11
70009;BME280;59542;37.950;-122.338;2023-10-19T01:46:30;100979.75;;;26.96;39.65
70009;BME280;59542;37.950;-122.338;2023-10-19T01:49:03;100982.88;;;26.81;40.31
70009;BME280;59542;37.950;-122.338;2023-10-19T01:51:32;100981.22;;;26.71;40.69
70009;BME280;59542;37.950;-122.338;2023-10-19T01:53:59;100978.16;;;26.73;41.44
70009;BME280;59542;37.950;-122.338;2023-10-19T01:56:29;100986.16;;;26.47;41.30
70009;BME280;59542;37.950;-122.338;2023-10-19T01:58:55;100991.22;;;26.40;41.89
70009;BME280;59542;37.950;-122.338;2023-10-19T02:01:23;100989.25;;;26.18;42.15
70009;BME280;59542;37.950;-122.338;2023-10-19T02:03:53;100992.09;;;26.26;41.95
70009;BME280;59542;37.950;-122.338;2023-10-19T02:06:40;100991.50;;;25.88;42.97
70009;BME280;59542;37.950;-122.338;2023-10-19T02:09:08;100995.75;;;25.80;43.66
70009;BME280;59542;37.950;-122.338;2023-10-19T02:11:39;100996.50;;;25.53;43.46
70009;BME280;59542;37.950;-122.338;2023-10-19T02:14:11;100998.84;;;25.46;43.55
70009;BME280;59542;37.950;-122.338;2023-10-19T02:16:48;101001.34;;;25.29;43.67
70009;BME280;59542;37.950;-122.338;2023-10-19T02:19:18;100996.91;;;25.33;43.11
70009;BME280;59542;37.950;-122.338;2023-10-19T02:21:55;101002.22;;;25.11;43.32
70009;BME280;59542;37.950;-122.338;2023-10-19T02:24:22;101000.13;;;25.21;43.36
70009;BME280;59542;37.950;-122.338;2023-10-19T02:26:54;101004.44;;;24.90;43.82
70009;BME280;59542;37.950;-122.338;2023-10-19T02:29:21;101009.84;;;24.76;44.77
70009;BME280;59542;37.950;-122.338;2023-10-19T02:31:48;101003.63;;;24.70;45.50
70009;BME280;59542;37.950;-122.338;2023-10-19T02:34:15;101018.06;;;24.57;46.67
70009;BME280;59542;37.950;-122.338;2023-10-19T02:36:43;101004.38;;;24.38;46.46
70009;BME280;59542;37.950;-122.338;2023-10-19T02:39:11;101014.22;;;24.39;46.24
70009;BME280;59542;37.950;-122.338;2023-10-19T02:41:44;101010.50;;;24.06;47.18
70009;BME280;59542;37.950;-122.338;2023-10-19T02:44:15;101018.78;;;24.01;47.33
70009;BME280;59542;37.950;-122.338;2023-10-19T11:54:55;101170.47;;;15.70;82.94
70009;BME280;59542;37.950;-122.338;2023-10-19T11:57:23;101168.16;;;15.86;81.28
70009;BME280;59542;37.950;-122.338;2023-10-19T11:59:49;101163.59;;;15.86;82.03
70009;BME280;59542;37.950;-122.338;2023-10-19T12:02:21;101176.28;;;15.97;81.50
70009;BME280;59542;37.950;-122.338;2023-10-19T12:04:47;101170.88;;;15.97;81.04
70009;BME280;59542;37.950;-122.338;2023-10-19T12:07:13;101175.47;;;16.08;79.08
70009;BME280;59542;37.950;-122.338;2023-10-19T12:09:40;101174.75;;;16.13;77.54
70009;BME280;59542;37.950;-122.338;2023-10-19T12:12:10;101173.94;;;16.13;76.60
70009;BME280;59542;37.950;-122.338;2023-10-19T12:14:37;101175.94;;;16.05;77.22
70009;BME280;59542;37.950;-122.338;2023-10-19T12:17:03;101168.78;;;16.11;77.71
70009;BME280;59542;37.950;-122.338;2023-10-19T12:19:32;101172.19;;;16.06;77.65
70009;BME280;59542;37.950;-122.338;2023-10-19T12:21:59;101164.41;;;15.87;77.70
70009;BME280;59542;37.950;-122.338;2023-10-19T12:24:26;101166.03;;;15.88;77.82
70009;BME280;59542;37.950;-122.338;2023-10-19T12:26:55;101153.94;;;15.67;78.29
70009;BME280;59542;37.950;-122.338;2023-10-19T12:29:22;101157.00;;;15.82;77.74
70009;BME280;59542;37.950;-122.338;2023-10-19T12:31:48;101161.34;;;15.71;77.99
70009;BME280;59542;37.950;-122.338;2023-10-19T12:34:14;101167.09;;;15.75;78.17
70009;BME280;59542;37.950;-122.338;2023-10-19T12:36:42;101167.91;;;15.75;77.97
70009;BME280;59542;37.950;-122.338;2023-10-19T12:39:12;101172.22;;;15.65;78.36
70009;BME280;59542;37.950;-122.338;2023-10-19T12:41:58;101164.06;;;15.71;78.26
70009;BME280;59542;37.950;-122.338;2023-10-19T12:44:24;101165.94;;;15.82;77.58
70009;BME280;59542;37.950;-122.338;2023-10-19T12:46:50;101165.97;;;15.94;77.31
70009;BME280;59542;37.950;-122.338;2023-10-19T12:49:18;101168.88;;;15.93;77.07
70009;BME280;59542;37.950;-122.338;2023-10-19T12:51:52;101171.13;;;15.96;76.87
70009;BME280;59542;37.950;-122.338;2023-10-19T12:54:18;101179.09;;;16.02;76.71
70009;BME280;59542;37.950;-122.338;2023-10-19T12:56:44;101173.56;;;15.97;77.10
70009;BME280;59542;37.950;-122.338;2023-10-19T12:59:14;101173.34;;;15.99;76.81
70009;BME280;59542;37.950;-122.338;2023-10-19T13:01:43;101172.88;;;16.02;76.85
70009;BME280;59542;37.950;-122.338;2023-10-19T13:04:14;101184.25;;;15.92;77.62
70009;BME280;59542;37.950;-122.338;2023-10-19T13:06:44;101188.25;;;15.90;77.74
70009;BME280;59542;37.950;-122.338;2023-10-19T13:09:13;101190.31;;;15.76;78.29
70009;BME280;59542;37.950;-122.338;2023-10-19T13:11:41;101189.38;;;15.82;78.25
70009;BME280;59542;37.950;-122.338;2023-10-19T13:14:10;101195.75;;;15.88;78.01
70009;BME280;59542;37.950;-122.338;2023-10-19T13:16:37;101198.91;;;15.84;78.45
70009;BME280;59542;37.950;-122.338;2023-10-19T13:19:04;101204.34;;;15.96;78.08
70009;BME280;59542;37.950;-122.338;2023-10-19T13:21:53;101204.81;;;16.05;77.68
70009;BME280;59542;37.950;-122.338;2023-10-19T13:24:20;101208.34;;;16.05;77.87
70009;BME280;59542;37.950;-122.338;2023-10-19T13:26:47;101216.31;;;16.00;77.79
70009;BME280;59542;37.950;-122.338;2023-10-19T13:29:14;101212.78;;;15.88;78.16
70009;BME280;59542;37.950;-122.338;2023-10-19T13:31:41;101213.38;;;15.90;78.30
70009;BME280;59542;37.950;-122.338;2023-10-19T13:34:17;101204.31;;;15.84;78.50
70009;BME280;59542;37.950;-122.338;2023-10-19T13:36:44;101209.34;;;15.81;78.63
70009;BME280;59542;37.950;-122.338;2023-10-19T13:39:12;101200.66;;;15.79;78.86
70009;BME280;59542;37.950;-122.338;2023-10-19T13:41:44;101209.59;;;15.91;78.46
70009;BME280;59542;37.950;-122.338;2023-10-19T13:44:10;101208.41;;;15.75;79.28
70009;BME280;59542;37.950;-122.338;2023-10-19T13:46:37;101201.13;;;15.76;79.18
70009;BME280;59542;37.950;-122.338;2023-10-19T13:49:03;101210.00;;;15.65;79.76
70009;BME280;59542;37.950;-122.338;2023-10-19T13:51:31;101210.56;;;15.55;80.35
70009;BME280;59542;37.950;-122.338;2023-10-19T13:53:58;101207.75;;;15.62;80.00
70009;BME280;59542;37.950;-122.338;2023-10-19T13:56:25;101211.19;;;15.69;79.78
70009;BME280;59542;37.950;-122.338;2023-10-19T13:58:52;101206.91;;;15.49;80.85
70009;BME280;59542;37.950;-122.338;2023-10-19T14:01:18;101212.16;;;15.44;81.16
70009;BME280;59542;37.950;-122.338;2023-10-19T14:03:46;101212.78;;;15.58;80.71
70009;BME280;59542;37.950;-122.338;2023-10-19T14:06:13;101217.31;;;15.76;79.52
70009;BME280;59542;37.950;-122.338;2023-10-19T14:08:39;101213.94;;;15.92;79.29
70009;BME280;59542;37.950;-122.338;2023-10-19T14:11:06;101220.88;;;15.88;78.86
70009;BME280;59542;37.950;-122.338;2023-10-19T14:13:34;101217.31;;;15.76;79.51
70009;BME280;59542;37.950;-122.338;2023-10-19T14:16:05;101217.91;;;15.78;79.22
70009;BME280;59542;37.950;-122.338;2023-10-19T14:18:32;101223.09;;;15.79;79.06
70009;BME280;59542;37.950;-122.338;2023-10-19T14:20:58;101231.88;;;15.75;79.07
70009;BME280;59542;37.950;-122.338;2023-10-19T14:23:26;101225.75;;;15.68;79.33
70009;BME280;59542;37.950;-122.338;2023-10-19T14:25:53;101219.81;;;15.77;78.63
70009;BME280;59542;37.950;-122.338;2023-10-19T14:28:19;101224.00;;;15.73;78.70
70009;BME280;59542;37.950;-122.338;2023-10-19T14:30:45;101226.34;;;15.81;78.47
70009;BME280;59542;37.950;-122.338;2023-10-19T14:33:11;101226.34;;;15.70;78.47
70009;BME280;59542;37.950;-122.338;2023-10-19T14:35:38;101226.94;;;15.72;78.45
70009;BME280;59542;37.950;-122.338;2023-10-19T14:38:08;101225.91;;;15.84;78.11
70009;BME280;59542;37.950;-122.338;2023-10-19T14:40:35;101233.59;;;15.69;78.59
70009;BME280;59542;37.950;-122.338;2023-10-19T14:43:01;101236.31;;;15.69;79.46
70009;BME280;59542;37.950;-122.338;2023-10-19T14:45:29;101230.88;;;15.99;79.75
70009;BME280;59542;37.950;-122.338;2023-10-19T14:47:56;101228.75;;;15.90;81.05
70009;BME280;59542;37.950;-122.338;2023-10-19T14:50:30;101244.69;;;15.91;81.31
70009;BME280;59542;37.950;-122.338;2023-10-19T14:52:57;101235.66;;;15.86;81.45
70009;BME280;59542;37.950;-122.338;2023-10-19T14:55:23;101247.78;;;16.06;80.85
70009;BME280;59542;37.950;-122.338;2023-10-19T14:57:51;101240.72;;;15.94;81.73
70009;BME280;59542;37.950;-122.338;2023-10-19T15:00:22;101239.66;;;15.95;82.09
70009;BME280;59542;37.950;-122.338;2023-10-19T15:02:59;101239.31;;;16.03;81.83
70009;BME280;59542;37.950;-122.338;2023-10-19T15:05:29;101246.72;;;15.96;82.58
70009;BME280;59542;37.950;-122.338;2023-10-19T15:08:01;101246.97;;;16.06;82.49
70009;BME280;59542;37.950;-122.338;2023-10-19T15:10:28;101245.22;;;16.23;82.06
70009;BME280;59542;37.950;-122.338;2023-10-19T15:12:55;101255.91;;;16.30;83.63
70009;BME280;59542;37.950;-122.338;2023-10-19T15:15:22;101256.75;;;16.42;84.61
70009;BME280;59542;37.950;-122.338;2023-10-19T15:17:49;101257.78;;;16.64;85.36
70009;BME280;59542;37.950;-122.338;2023-10-19T15:20:19;101258.72;;;16.70;85.55
70009;BME280;59542;37.950;-122.338;2023-10-19T15:22:47;101263.69;;;16.85;85.23
70009;BME280;59542;37.950;-122.338;2023-10-19T15:25:14;101267.69;;;16.94;83.54
70009;BME280;59542;37.950;-122.338;2023-10-19T15:27:44;101259.75;;;17.04;83.60
70009;BME280;59542;37.950;-122.338;2023-10-19T15:30:12;101264.31;;;17.15;81.95
70009;BME280;59542;37.950;-122.338;2023-10-19T15:32:42;101273.38;;;17.09;81.28
70009;BME280;59542;37.950;-122.338;2023-10-19T15:35:10;101275.84;;;17.23;80.26
70009;BME280;59542;37.950;-122.338;2023-10-19T15:37:38;101273.03;;;17.18;81.03
70009;BME280;59542;37.950;-122.338;2023-10-19T15:40:04;101278.97;;;17.31;82.02
70009;BME280;59542;37.950;-122.338;2023-10-19T15:42:31;101273.72;;;17.25;82.78
70009;BME280;59542;37.950;-122.338;2023-10-19T15:45:00;101275.91;;;17.39;82.35
70009;BME280;59542;37.950;-122.338;2023-10-19T15:47:27;101274.44;;;17.49;82.42
70009;BME280;59542;37.950;-122.338;2023-10-19T15:49:54;101281.47;;;17.73;80.72
70009;BME280;59542;37.950;-122.338;2023-10-19T15:52:25;101286.75;;;17.68;80.42
70009;BME280;59542;37.950;-122.338;2023-10-19T15:54:54;101291.41;;;17.84;79.92
70009;BME280;59542;37.950;-122.338;2023-10-19T15:57:21;101286.03;;;18.01;78.72
70009;BME280;59542;37.950;-122.338;2023-10-19T15:59:47;101285.94;;;18.13;76.25
70009;BME280;59542;37.950;-122.338;2023-10-19T16:02:14;101289.00;;;18.33;75.99
70009;BME280;59542;37.950;-122.338;2023-10-19T16:04:42;101290.13;;;18.37;75.54
70009;BME280;59542;37.950;-122.338;2023-10-19T16:07:09;101293.00;;;18.47;75.21
70009;BME280;59542;37.950;-122.338;2023-10-19T16:09:36;101296.63;;;18.70;74.47
70009;BME280;59542;37.950;-122.338;2023-10-19T16:12:03;101294.13;;;18.85;73.75
70009;BME280;59542;37.950;-122.338;2023-10-19T16:14:29;101293.34;;;19.07;75.20
70009;BME280;59542;37.950;-122.338;2023-10-19T16:16:56;101295.13;;;19.18;76.26
70009;BME280;59542;37.950;-122.338;2023-10-19T16:19:22;101291.38;;;19.24;76.61
70009;BME280;59542;37.950;-122.338;2023-10-19T16:21:51;101282.28;;;19.57;75.78
70009;BME280;59542;37.950;-122.338;2023-10-19T16:24:18;101285.25;;;19.77;74.37
70009;BME280;59542;37.950;-122.338;2023-10-19T16:26:45;101288.09;;;19.93;73.91
70009;BME280;59542;37.950;-122.338;2023-10-19T16:29:12;101290.91;;;20.03;72.72
70009;BME280;59542;37.950;-122.338;2023-10-19T16:31:42;101285.69;;;20.28;72.61
70009;BME280;59542;37.950;-122.338;2023-10-19T16:34:12;101288.03;;;20.47;71.54
70009;BME280;59542;37.950;-122.338;2023-10-19T16:36:40;101286.44;;;20.51;70.51
70009;BME280;59542;37.950;-122.338;2023-10-19T16:39:07;101295.75;;;20.60;70.14
70009;BME280;59542;37.950;-122.338;2023-10-19T16:41:37;101297.50;;;20.81;69.43
70009;BME280;59542;37.950;-122.338;2023-10-19T16:44:04;101304.09;;;20.91;69.23
70009;BME280;59542;37.950;-122.338;2023-10-19T16:46:33;101300.63;;;21.00;68.42
70009;BME280;59542;37.950;-122.338;2023-10-19T16:49:02;101301.69;;;20.99;68.68
70009;BME280;59542;37.950;-122.338;2023-10-19T16:51:30;101307.72;;;21.06;68.55
70009;BME280;59542;37.950;-122.338;2023-10-19T16:53:57;101309.47;;;21.28;67.11
70009;BME280;59542;37.950;-122.338;2023-10-19T16:56:23;101310.66;;;21.57;66.15
70009;BME280;59542;37.950;-122.338;2023-10-19T16:58:50;101312.88;;;21.71;65.00
70009;BME280;59542;37.950;-122.338;2023-10-19T17:01:16;101302.28;;;21.84;65.31
70009;BME280;59542;37.950;-122.338;2023-10-19T17:03:43;101303.97;;;22.06;62.85
70009;BME280;59542;37.950;-122.338;2023-10-19T17:06:11;101296.34;;;22.23;61.79
70009;BME280;59542;37.950;-122.338;2023-10-19T17:08:38;101288.09;;;22.74;57.38
70009;BME280;59542;37.950;-122.338;2023-10-19T17:11:05;101295.13;;;23.16;54.29
70009;BME280;59542;37.950;-122.338;2023-10-19T17:13:31;101291.91;;;23.58;49.13
70009;BME280;59542;37.950;-122.338;2023-10-19T17:15:58;101302.28;;;24.06;46.62
70009;BME280;59542;37.950;-122.338;2023-10-19T17:18:25;101294.38;;;24.38;45.92
70009;BME280;59542;37.950;-122.338;2023-10-19T17:20:52;101293.25;;;24.68;44.67
70009;BME280;59542;37.950;-122.338;2023-10-19T17:23:19;101295.50;;;24.90;43.42
70009;BME280;59542;37.950;-122.338;2023-10-19T17:25:45;101295.28;;;25.11;43.00
70009;BME280;59542;37.950;-122.338;2023-10-19T17:28:15;101291.44;;;25.54;43.00
70009;BME280;59542;37.950;-122.338;2023-10-19T17:30:41;101286.69;;;25.60;41.09
70009;BME280;59542;37.950;-122.338;2023-10-19T17:33:08;101296.56;;;25.80;40.87
70009;BME280;59542;37.950;-122.338;2023-10-19T17:35:35;101295.84;;;25.93;40.19
70009;BME280;59542;37.950;-122.338;2023-10-19T17:38:04;101286.50;;;26.27;39.39
70009;BME280;59542;37.950;-122.338;2023-10-19T17:40:31;101296.03;;;26.16;39.79
70009;BME280;59542;37.950;-122.338;2023-10-19T17:42:57;101288.81;;;26.20;39.38
70009;BME280;59542;37.950;-122.338;2023-10-19T17:45:23;101285.66;;;26.45;38.97
70009;BME280;59542;37.950;-122.338;2023-10-19T17:47:50;101283.00;;;26.54;39.23
70009;BME280;59542;37.950;-122.338;2023-10-19T17:50:17;101279.47;;;26.81;38.20
70009;BME280;59542;37.950;-122.338;2023-10-19T17:52:45;101277.97;;;26.89;38.54
70009;BME280;59542;37.950;-122.338;2023-10-19T17:55:16;101279.41;;;27.14;38.05
70009;BME280;59542;37.950;-122.338;2023-10-19T17:57:49;101275.75;;;27.18;37.78
70009;BME280;59542;37.950;-122.338;2023-10-19T18:00:16;101279.81;;;27.21;37.35
70009;BME280;59542;37.950;-122.338;2023-10-19T18:02:45;101276.56;;;27.19;37.04
70009;BME280;59542;37.950;-122.338;2023-10-19T18:05:12;101272.75;;;27.42;37.11
70009;BME280;59542;37.950;-122.338;2023-10-19T18:07:40;101268.09;;;27.65;37.24
70009;BME280;59542;37.950;-122.338;2023-10-19T18:10:07;101266.34;;;27.69;36.05
70009;BME280;59542;37.950;-122.338;2023-10-19T18:12:34;101268.41;;;27.77;35.80
70009;BME280;59542;37.950;-122.338;2023-10-19T18:15:01;101262.72;;;27.74;35.57
70009;BME280;59542;37.950;-122.338;2023-10-19T18:17:27;101270.47;;;27.94;35.20
70009;BME280;59542;37.950;-122.338;2023-10-19T18:19:53;101270.16;;;27.96;35.35
70009;BME280;59542;37.950;-122.338;2023-10-19T18:22:20;101273.47;;;28.06;34.46
70009;BME280;59542;37.950;-122.338;2023-10-19T18:24:46;101268.88;;;28.24;35.63
70009;BME280;59542;37.950;-122.338;2023-10-19T18:27:14;101265.91;;;28.12;34.20
70009;BME280;59542;37.950;-122.338;2023-10-19T18:29:41;101270.00;;;28.23;34.55
70009;BME280;59542;37.950;-122.338;2023-10-19T18:32:10;101271.19;;;28.31;34.19
70009;BME280;59542;37.950;-122.338;2023-10-19T18:34:37;101272.44;;;28.47;33.01
70009;BME280;59542;37.950;-122.338;2023-10-19T18:37:03;101267.72;;;28.39;34.22
70009;BME280;59542;37.950;-122.338;2023-10-19T18:39:31;101264.81;;;28.44;33.45
70009;BME280;59542;37.950;-122.338;2023-10-19T18:41:58;101269.91;;;28.59;33.27
70009;BME280;59542;37.950;-122.338;2023-10-19T18:44:24;101265.38;;;28.63;32.65
70009;BME280;59542;37.950;-122.338;2023-10-19T18:46:50;101261.50;;;28.64;32.76
70009;BME280;59542;37.950;-122.338;2023-10-19T18:49:16;101257.22;;;28.89;32.49
70009;BME280;59542;37.950;-122.338;2023-10-19T18:51:43;101259.53;;;28.96;32.60
70009;BME280;59542;37.950;-122.338;2023-10-19T18:54:09;101254.53;;;29.07;31.69
70009;BME280;59542;37.950;-122.338;2023-10-19T18:56:35;101251.16;;;29.10;31.97
70009;BME280;59542;37.950;-122.338;2023-10-19T18:59:03;101251.63;;;29.12;32.17
70009;BME280;59542;37.950;-122.338;2023-10-19T19:01:29;101260.09;;;29.15;31.33
70009;BME280;59542;37.950;-122.338;2023-10-19T19:03:55;101260.25;;;29.10;31.29
70009;BME280;59542;37.950;-122.338;2023-10-19T19:06:22;101244.72;;;29.32;31.27
70009;BME280;59542;37.950;-122.338;2023-10-19T19:08:48;101238.88;;;29.33;31.36
70009;BME280;59542;37.950;-122.338;2023-10-19T19:11:16;101246.81;;;29.52;31.04
70009;BME280;59542;37.950;-122.338;2023-10-19T19:13:46;101243.59;;;29.50;30.70
70009;BME280;59542;37.950;-122.338;2023-10-19T19:16:13;101241.66;;;29.59;30.21
70009;BME280;59542;37.950;-122.338;2023-10-19T19:18:40;101246.19;;;29.64;30.37
70009;BME280;59542;37.950;-122.338;2023-10-19T19:21:07;101241.66;;;29.77;29.95
70009;BME280;59542;37.950;-122.338;2023-10-19T19:23:37;101241.63;;;29.94;29.71
70009;BME280;59542;37.950;-122.338;2023-10-19T19:26:05;101232.22;;;29.95;29.76
70009;BME280;59542;37.950;-122.338;2023-10-19T19:28:32;101240.94;;;30.32;29.99
70009;BME280;59542;37.950;-122.338;2023-10-19T19:30:59;101222.59;;;30.18;28.94
70009;BME280;59542;37.950;-122.338;2023-10-19T19:33:29;101224.72;;;30.21;29.52
70009;BME280;59542;37.950;-122.338;2023-10-19T19:35:56;101228.81;;;30.15;29.28
70009;BME280;59542;37.950;-122.338;2023-10-19T19:38:24;101217.69;;;30.33;28.89
70009;BME280;59542;37.950;-122.338;2023-10-19T19:40:50;101202.47;;;30.18;29.41
70009;BME280;59542;37.950;-122.338;2023-10-19T19:43:18;101202.56;;;30.39;28.53
70009;BME280;59542;37.950;-122.338;2023-10-19T19:45:45;101196.69;;;30.49;28.23
70009;BME280;59542;37.950;-122.338;2023-10-19T19:48:11;101187.78;;;30.64;28.67
70009;BME280;59542;37.950;-122.338;2023-10-19T19:50:39;101194.38;;;30.51;28.17
70009;BME280;59542;37.950;-122.338;2023-10-19T19:53:09;101182.47;;;30.59;28.03
70009;BME280;59542;37.950;-122.338;2023-10-19T19:55:36;101190.19;;;30.83;27.82
70009;BME280;59542;37.950;-122.338;2023-10-19T19:58:03;101181.81;;;30.71;28.12
70009;BME280;59542;37.950;-122.338;2023-10-19T20:00:29;101183.22;;;30.77;27.86
70009;BME280;59542;37.950;-122.338;2023-10-19T20:02:58;101168.53;;;30.85;27.76
70009;BME280;59542;37.950;-122.338;2023-10-19T20:05:26;101168.88;;;30.84;27.99
70009;BME280;59542;37.950;-122.338;2023-10-19T20:08:02;101159.31;;;31.23;27.57
70009;BME280;59542;37.950;-122.338;2023-10-19T20:10:41;101151.88;;;31.15;27.22
70009;BME280;59542;37.950;-122.338;2023-10-19T20:13:12;101156.03;;;31.30;26.52
70009;BME280;59542;37.950;-122.338;2023-10-19T20:15:42;101140.13;;;31.26;26.87
70009;BME280;59542;37.950;-122.338;2023-10-19T20:18:10;101137.88;;;31.41;26.85
70009;BME280;59542;37.950;-122.338;2023-10-19T20:20:36;101148.47;;;31.39;26.42
70009;BME280;59542;37.950;-122.338;2023-10-19T20:23:03;101139.16;;;31.43;26.02
70009;BME280;59542;37.950;-122.338;2023-10-19T20:25:30;101124.34;;;31.60;26.04
70009;BME280;59542;37.950;-122.338;2023-10-19T20:27:57;101120.66;;;31.68;25.55
70009;BME280;59542;37.950;-122.338;2023-10-19T20:30:31;101124.88;;;31.87;25.67
70009;BME280;59542;37.950;-122.338;2023-10-19T20:32:59;101110.97;;;31.74;25.32
70009;BME280;59542;37.950;-122.338;2023-10-19T20:35:25;101108.75;;;31.56;25.78
70009;BME280;59542;37.950;-122.338;2023-10-19T20:37:52;101099.84;;;31.83;25.39
70009;BME280;59542;37.950;-122.338;2023-10-19T20:40:19;101100.41;;;31.76;25.55
70009;BME280;59542;37.950;-122.338;2023-10-19T20:42:51;101092.81;;;31.86;25.13
70009;BME280;59542;37.950;-122.338;2023-10-19T20:45:23;101091.69;;;31.99;24.86
70009;BME280;59542;37.950;-122.338;2023-10-19T20:47:53;101086.81;;;31.96;24.92
70009;BME280;59542;37.950;-122.338;2023-10-19T20:50:21;101092.59;;;32.03;24.89
70009;BME280;59542;37.950;-122.338;2023-10-19T20:52:56;101087.28;;;31.86;24.80
70009;BME280;59542;37.950;-122.338;2023-10-19T20:55:26;101084.41;;;32.06;25.26
70009;BME280;59542;37.950;-122.338;2023-10-19T20:57:53;101078.28;;;32.13;24.63
70009;BME280;59542;37.950;-122.338;2023-10-19T21:00:19;101069.53;;;32.11;25.22
70009;BME280;59542;37.950;-122.338;2023-10-19T21:02:46;101071.03;;;32.09;24.68
70009;BME280;59542;37.950;-122.338;2023-10-19T21:05:13;101064.94;;;32.15;24.42
70009;BME280;59542;37.950;-122.338;2023-10-19T21:07:46;101059.97;;;32.21;24.94
70009;BME280;59542;37.950;-122.338;2023-10-19T21:10:12;101057.19;;;32.45;24.68
70009;BME280;59542;37.950;-122.338;2023-10-19T21:12:40;101052.41;;;32.58;24.44
70009;BME280;59542;37.950;-122.338;2023-10-19T21:15:10;101045.56;;;32.68;23.99
70009;BME280;59542;37.950;-122.338;2023-10-19T21:17:46;101047.50;;;32.79;24.00
70009;BME280;59542;37.950;-122.338;2023-10-19T21:20:14;101040.09;;;32.83;23.56
70009;BME280;59542;37.950;-122.338;2023-10-19T21:22:45;101035.19;;;33.05;24.26
70009;BME280;59542;37.950;-122.338;2023-10-19T21:25:13;101037.72;;;33.10;23.92
70009;BME280;59542;37.950;-122.338;2023-10-19T21:27:40;101035.81;;;33.14;24.38
70009;BME280;59542;37.950;-122.338;2023-10-19T21:30:07;101036.84;;;33.22;23.71
70009;BME280;59542;37.950;-122.338;2023-10-19T21:32:41;101034.41;;;33.20;23.85
70009;BME280;59542;37.950;-122.338;2023-10-19T21:35:08;101025.47;;;33.11;23.39